sensor_id;sensor_type;location;lat;lon;timestamp;temperature;humidity
40249;DHT22;25969;49.970;11.062;2023-09-18T04:09:54;18.40;99.90
40249;DHT22;25969;49.970;11.062;2023-09-18T04:19:55;18.20;99.90
40249;DHT22;25969;49.970;11.062;2023-09-18T04:29:56;18.20;99.90
40249;DHT22;25969;49.970;11.062;2023-09-18T04:40:00;18.00;99.90
40249;DHT22;25969;49.970;11.062;2023-09-18T04:50:01;18.20;99.90
40249;DHT22;25969;49.970;11.062;2023-09-18T05:00:07;18.50;99.90
40249;DHT22;25969;49.970;11.062;2023-09-18T05:10:13;18.30;99.90
40249;DHT22;25969;49.970;11.062;2023-09-18T05:20:15;18.30;99.90
40249;DHT22;25969;49.970;11.062;2023-09-18T05:30:23;18.30;99.90
40249;DHT22;25969;49.970;11.062;2023-09-18T05:40:24;18.30;99.90
40249;DHT22;25969;49.970;11.062;2023-09-18T05:50:28;18.40;99.90
40249;DHT22;25969;49.970;11.062;2023-09-18T06:00:30;18.60;99.90
40249;DHT22;25969;49.970;11.062;2023-09-18T06:10:32;18.80;99.90
40249;DHT22;25969;49.970;11.062;2023-09-18T06:20:33;18.80;99.90
40249;DHT22;25969;49.970;11.062;2023-09-18T06:30:34;19.50;99.90
40249;DHT22;25969;49.970;11.062;2023-09-18T06:40:36;20.10;99.00
40249;DHT22;25969;49.970;11.062;2023-09-18T06:50:37;19.90;99.90
40249;DHT22;25969;49.970;11.062;2023-09-18T07:00:39;19.90;99.90
40249;DHT22;25969;49.970;11.062;2023-09-18T07:10:40;20.50;98.50
40249;DHT22;25969;49.970;11.062;2023-09-18T07:20:41;20.60;98.40
40249;DHT22;25969;49.970;11.062;2023-09-18T07:30:42;20.20;99.30
40249;DHT22;25969;49.970;11.062;2023-09-18T07:40:44;20.20;99.90
40249;DHT22;25969;49.970;11.062;2023-09-18T07:50:46;20.30;99.90
40249;DHT22;25969;49.970;11.062;2023-09-18T08:00:47;20.30;99.30
40249;DHT22;25969;49.970;11.062;2023-09-18T08:10:50;21.00;97.60
40249;DHT22;25969;49.970;11.062;2023-09-18T08:20:51;21.60;96.10
40249;DHT22;25969;49.970;11.062;2023-09-18T08:30:51;22.60;93.50
40249;DHT22;25969;49.970;11.062;2023-09-18T08:40:54;22.90;93.50
40249;DHT22;25969;49.970;11.062;2023-09-18T08:50:55;25.50;87.70
40249;DHT22;25969;49.970;11.062;2023-09-18T09:00:56;30.70;66.30
40249;DHT22;25969;49.970;11.062;2023-09-18T09:10:59;32.90;57.30
40249;DHT22;25969;49.970;11.062;2023-09-18T09:21:02;29.60;63.70
40249;DHT22;25969;49.970;11.062;2023-09-18T09:31:05;28.50;61.10
40249;DHT22;25969;49.970;11.062;2023-09-18T09:41:06;27.90;62.20
40249;DHT22;25969;49.970;11.062;2023-09-18T09:51:07;27.90;61.60
40249;DHT22;25969;49.970;11.062;2023-09-18T10:01:11;30.80;57.20
40249;DHT22;25969;49.970;11.062;2023-09-18T10:11:19;29.20;57.00
40249;DHT22;25969;49.970;11.062;2023-09-18T10:32:07;31.40;52.40
40249;DHT22;25969;49.970;11.062;2023-09-18T10:42:12;28.70;56.80
40249;DHT22;25969;49.970;11.062;2023-09-18T10:52:14;27.50;59.30
40249;DHT22;25969;49.970;11.062;2023-09-18T11:02:16;26.80;62.50
40249;DHT22;25969;49.970;11.062;2023-09-18T11:12:18;26.30;66.40
40249;DHT22;25969;49.970;11.062;2023-09-18T11:22:18;26.00;64.50
40249;DHT22;25969;49.970;11.062;2023-09-18T11:32:37;29.40;56.00
40249;DHT22;25969;49.970;11.062;2023-09-18T11:53:20;24.20;68.30
40249;DHT22;25969;49.970;11.062;2023-09-18T12:03:23;23.80;72.70
40249;DHT22;25969;49.970;11.062;2023-09-18T12:13:28;23.20;76.70
40249;DHT22;25969;49.970;11.062;2023-09-18T12:23:37;22.20;84.90
40249;DHT22;25969;49.970;11.062;2023-09-18T12:33:39;20.70;93.60
40249;DHT22;25969;49.970;11.062;2023-09-18T12:43:41;20.10;99.90
40249;DHT22;25969;49.970;11.062;2023-09-18T12:53:42;19.00;99.90
40249;DHT22;25969;49.970;11.062;2023-09-18T13:03:43;18.40;99.90
40249;DHT22;25969;49.970;11.062;2023-09-18T13:13:44;18.40;99.90
40249;DHT22;25969;49.970;11.062;2023-09-18T13:23:45;18.50;99.90
40249;DHT22;25969;49.970;11.062;2023-09-18T13:33:46;18.30;99.90
40249;DHT22;25969;49.970;11.062;2023-09-18T13:43:46;18.20;99.90
40249;DHT22;25969;49.970;11.062;2023-09-18T13:53:49;18.30;99.90
40249;DHT22;25969;49.970;11.062;2023-09-18T14:03:50;18.10;99.90
40249;DHT22;25969;49.970;11.062;2023-09-18T14:13:51;17.90;99.90
40249;DHT22;25969;49.970;11.062;2023-09-18T14:23:52;17.70;99.90
40249;DHT22;25969;49.970;11.062;2023-09-18T14:33:53;17.60;99.90
40249;DHT22;25969;49.970;11.062;2023-09-18T14:43:54;17.60;99.90
40249;DHT22;25969;49.970;11.062;2023-09-18T14:53:56;17.70;99.90
40249;DHT22;25969;49.970;11.062;2023-09-18T15:03:56;17.80;99.90
40249;DHT22;25969;49.970;11.062;2023-09-18T15:13:57;18.00;99.90
40249;DHT22;25969;49.970;11.062;2023-09-18T15:23:58;18.40;99.90
40249;DHT22;25969;49.970;11.062;2023-09-18T15:33:59;19.10;99.90
40249;DHT22;25969;49.970;11.062;2023-09-18T15:43:59;19.50;99.90
40249;DHT22;25969;49.970;11.062;2023-09-18T15:54:00;18.90;99.90
40249;DHT22;25969;49.970;11.062;2023-09-18T16:04:01;19.20;99.90
40249;DHT22;25969;49.970;11.062;2023-09-18T16:14:01;19.40;99.90
40249;DHT22;25969;49.970;11.062;2023-09-18T16:24:03;19.10;99.90
40249;DHT22;25969;49.970;11.062;2023-09-18T16:34:07;18.80;99.90
40249;DHT22;25969;49.970;11.062;2023-09-18T16:44:08;19.20;99.90
40249;DHT22;25969;49.970;11.062;2023-09-18T16:54:09;19.10;99.90
40249;DHT22;25969;49.970;11.062;2023-09-18T17:04:10;19.00;99.90
40249;DHT22;25969;49.970;11.062;2023-09-18T17:14:13;18.60;99.90
40249;DHT22;25969;49.970;11.062;2023-09-18T17:24:15;18.10;99.90
40249;DHT22;25969;49.970;11.062;2023-09-18T17:34:16;17.60;99.90
40249;DHT22;25969;49.970;11.062;2023-09-18T17:44:17;17.20;99.90
40249;DHT22;25969;49.970;11.062;2023-09-18T17:54:19;17.10;99.90
40249;DHT22;25969;49.970;11.062;2023-09-18T18:04:20;16.90;99.90
40249;DHT22;25969;49.970;11.062;2023-09-18T18:14:21;16.90;99.90
40249;DHT22;25969;49.970;11.062;2023-09-18T18:24:22;16.80;99.90
40249;DHT22;25969;49.970;11.062;2023-09-18T18:34:23;16.80;99.90
40249;DHT22;25969;49.970;11.062;2023-09-18T18:44:25;16.80;99.90
40249;DHT22;25969;49.970;11.062;2023-09-18T18:54:26;16.80;99.90
40249;DHT22;25969;49.970;11.062;2023-09-18T19:04:26;16.90;99.90
40249;DHT22;25969;49.970;11.062;2023-09-18T19:14:28;17.10;99.90
40249;DHT22;25969;49.970;11.062;2023-09-18T19:24:29;17.00;99.90
40249;DHT22;25969;49.970;11.062;2023-09-18T19:34:31;17.10;99.90
40249;DHT22;25969;49.970;11.062;2023-09-18T19:44:32;17.20;99.90
40249;DHT22;25969;49.970;11.062;2023-09-18T19:54:34;17.30;99.90
40249;DHT22;25969;49.970;11.062;2023-09-18T20:04:35;17.50;99.90
40249;DHT22;25969;49.970;11.062;2023-09-18T20:14:36;17.50;99.90
40249;DHT22;25969;49.970;11.062;2023-09-18T20:24:43;17.30;99.90
40249;DHT22;25969;49.970;11.062;2023-09-18T20:34:44;17.40;99.90
40249;DHT22;25969;49.970;11.062;2023-09-18T20:44:44;17.50;99.90
40249;DHT22;25969;49.970;11.062;2023-09-18T20:54:46;17.50;99.90
40249;DHT22;25969;49.970;11.062;2023-09-18T21:04:47;17.60;99.90
40249;DHT22;25969;49.970;11.062;2023-09-18T21:14:48;17.80;99.90
40249;DHT22;25969;49.970;11.062;2023-09-18T21:24:49;17.70;99.90
40249;DHT22;25969;49.970;11.062;2023-09-18T21:34:50;17.60;99.90
40249;DHT22;25969;49.970;11.062;2023-09-18T21:44:51;17.60;99.90
40249;DHT22;25969;49.970;11.062;2023-09-18T21:54:52;17.40;99.90
